Time;durP1;ratioP1;P1;durP2;ratioP2;P2;SDS_P1;SDS_P2;PMS_P1;PMS_P2;Temp;Humidity;BMP_temperature;BMP_pressure;BME280_temperature;BME280_humidity;BME280_pressure;Samples;Min_cycle;Max_cycle;Signal;HPM_P1;HPM_P2
2023/08/01 00:01:54;;;;;;;6.68;3.42;;;22.80;99.90;;;;;;5069810;28;20618;-63
2023/08/01 00:04:58;;;;;;;11.80;4.57;;;22.80;99.90;;;;;;5070344;28;20040;-63
2023/08/01 00:08:02;;;;;;;6.03;3.38;;;22.70;99.90;;;;;;5070318;28;20499;-63
2023/08/01 00:11:07;;;;;;;10.27;3.70;;;22.70;99.90;;;;;;5070076;28;20367;-63
2023/08/01 00:14:11;;;;;;;7.32;3.72;;;22.60;99.90;;;;;;5069699;28;20048;-63
2023/08/01 00:17:18;;;;;;;5.28;3.28;;;22.60;99.90;;;;;;5070569;28;20055;-64
2023/08/01 00:20:22;;;;;;;5.55;3.33;;;22.60;99.90;;;;;;5069981;28;20063;-63
2023/08/01 00:23:28;;;;;;;7.57;3.10;;;22.60;99.90;;;;;;5069807;28;20427;-63
2023/08/01 00:26:34;;;;;;;4.97;3.13;;;22.50;99.90;;;;;;5070052;28;20051;-63
2023/08/01 00:29:38;;;;;;;9.05;3.70;;;22.50;99.90;;;;;;5070151;28;20047;-64
2023/08/01 00:32:44;;;;;;;8.70;4.20;;;22.50;99.90;;;;;;5069588;28;20048;-63
2023/08/01 00:35:54;;;;;;;7.30;3.40;;;22.40;99.90;;;;;;5057314;28;20403;-63
2023/08/01 00:38:58;;;;;;;6.43;2.80;;;22.30;99.90;;;;;;5070082;28;20060;-63
2023/08/01 00:42:03;;;;;;;8.73;3.90;;;22.30;99.90;;;;;;5057115;28;20040;-64
2023/08/01 00:45:10;;;;;;;5.72;3.30;;;22.20;99.90;;;;;;5069905;28;20040;-63
2023/08/01 00:48:14;;;;;;;9.85;3.40;;;22.20;99.90;;;;;;5073516;28;20048;-63
2023/08/01 00:51:18;;;;;;;9.88;3.40;;;22.20;99.90;;;;;;5061499;28;20035;-63
2023/08/01 00:54:22;;;;;;;5.60;3.40;;;22.10;99.90;;;;;;5073321;28;20499;-63
2023/08/01 00:57:26;;;;;;;10.10;3.58;;;22.10;99.90;;;;;;5061482;28;20040;-63
2023/08/01 01:00:30;;;;;;;5.25;3.63;;;22.10;99.90;;;;;;5060979;28;20059;-63
2023/08/01 01:03:36;;;;;;;8.18;3.92;;;22.00;99.90;;;;;;5060796;28;20499;-63
2023/08/01 01:06:50;;;;;;;8.25;4.50;;;22.00;99.90;;;;;;5073896;28;20514;-63
2023/08/01 01:09:55;;;;;;;8.25;3.65;;;22.00;99.90;;;;;;5072520;28;20044;-63
2023/08/01 01:12:59;;;;;;;8.05;4.40;;;22.00;99.90;;;;;;5072732;28;20027;-63
2023/08/01 01:16:03;;;;;;;7.45;4.03;;;22.00;99.90;;;;;;5073116;28;20036;-63
2023/08/01 01:19:08;;;;;;;9.60;3.90;;;22.00;99.90;;;;;;5073142;28;20043;-63
2023/08/01 01:22:15;;;;;;;7.30;3.88;;;22.00;99.90;;;;;;5060548;28;20257;-63
2023/08/01 01:25:21;;;;;;;11.00;4.45;;;21.90;99.90;;;;;;5072967;28;20047;-64
2023/08/01 01:28:26;;;;;;;10.63;4.72;;;21.90;99.90;;;;;;5072867;28;20048;-64
2023/08/01 01:31:32;;;;;;;6.95;4.43;;;21.90;99.90;;;;;;5071592;28;20035;-64
2023/08/01 01:34:36;;;;;;;5.28;3.38;;;21.70;99.90;;;;;;5059999;28;20037;-63
2023/08/01 01:37:40;;;;;;;12.02;4.60;;;21.70;99.90;;;;;;5072721;28;20043;-64
2023/08/01 01:40:44;;;;;;;10.35;5.03;;;21.70;99.90;;;;;;5060085;28;20051;-64
2023/08/01 01:43:48;;;;;;;9.88;4.03;;;21.70;99.90;;;;;;5072592;28;20063;-64
2023/08/01 01:46:55;;;;;;;11.80;4.70;;;21.70;99.90;;;;;;5072768;28;20040;-64
2023/08/01 01:49:58;;;;;;;10.35;4.78;;;21.60;99.90;;;;;;5060031;28;20044;-63
2023/08/01 01:53:03;;;;;;;9.40;4.38;;;21.60;99.90;;;;;;5059536;28;20494;-64
2023/08/01 01:56:08;;;;;;;11.15;4.90;;;21.60;99.90;;;;;;5059716;28;20043;-63
2023/08/01 01:59:13;;;;;;;12.85;4.50;;;21.50;99.90;;;;;;5048772;28;20060;-63
2023/08/01 02:02:17;;;;;;;7.22;4.63;;;21.50;99.90;;;;;;5059857;28;20403;-63
2023/08/01 02:05:21;;;;;;;7.20;4.50;;;21.50;99.90;;;;;;5072484;28;20043;-62
2023/08/01 02:08:25;;;;;;;18.50;4.95;;;21.50;99.90;;;;;;5072259;28;20051;-63
2023/08/01 02:11:30;;;;;;;11.02;5.20;;;21.50;99.90;;;;;;5071793;28;20039;-63
2023/08/01 02:14:35;;;;;;;13.50;5.07;;;21.50;99.90;;;;;;5071399;28;20036;-63
2023/08/01 02:17:39;;;;;;;15.52;4.60;;;21.50;99.90;;;;;;5072185;28;20051;-62
2023/08/01 02:20:44;;;;;;;15.10;4.88;;;21.50;99.90;;;;;;5059572;28;20051;-63
2023/08/01 02:23:48;;;;;;;14.18;4.45;;;21.50;99.90;;;;;;5059816;28;20059;-63
2023/08/01 02:26:51;;;;;;;14.57;5.32;;;21.50;99.90;;;;;;5059521;28;20387;-63
2023/08/01 02:29:57;;;;;;;13.70;4.68;;;21.50;99.90;;;;;;5059626;28;20043;-63
2023/08/01 02:33:01;;;;;;;7.85;4.07;;;21.40;99.90;;;;;;5071475;28;20043;-63
2023/08/01 02:36:05;;;;;;;12.65;4.97;;;21.40;99.90;;;;;;5058960;28;20495;-63
2023/08/01 02:39:09;;;;;;;11.57;4.85;;;21.30;99.90;;;;;;5071774;28;20043;-63
2023/08/01 02:42:14;;;;;;;11.55;5.35;;;21.20;99.90;;;;;;5070860;28;20577;-63
2023/08/01 02:45:18;;;;;;;12.38;5.43;;;21.20;99.90;;;;;;5058702;28;20106;-63
2023/08/01 02:48:22;;;;;;;15.55;5.43;;;21.10;99.90;;;;;;5071208;28;20047;-63
2023/08/01 02:51:26;;;;;;;12.88;5.80;;;21.10;99.90;;;;;;5071098;28;20036;-63
2023/08/01 02:54:29;;;;;;;10.05;5.03;;;21.00;99.90;;;;;;5058804;28;20395;-63
2023/08/01 02:57:33;;;;;;;15.45;5.70;;;21.00;99.90;;;;;;5059047;28;20051;-63
2023/08/01 03:00:40;;;;;;;11.52;6.20;;;20.90;99.90;;;;;;5070956;28;20071;-63
2023/08/01 03:03:44;;;;;;;16.05;5.70;;;20.90;99.90;;;;;;5070835;28;20051;-63
2023/08/01 03:06:48;;;;;;;10.88;5.82;;;20.80;99.90;;;;;;5058696;28;20036;-63
2023/08/01 03:09:52;;;;;;;13.15;6.13;;;20.80;99.90;;;;;;5070565;28;20040;-63
2023/08/01 03:12:57;;;;;;;15.25;7.00;;;20.80;99.90;;;;;;5058199;28;20047;-62
2023/08/01 03:16:01;;;;;;;15.45;6.47;;;20.80;99.90;;;;;;5070757;28;20052;-63
2023/08/01 03:19:06;;;;;;;16.45;6.55;;;20.90;99.90;;;;;;5071379;28;20126;-63
2023/08/01 03:22:10;;;;;;;13.07;6.55;;;20.90;99.90;;;;;;5070710;28;20064;-63
2023/08/01 03:25:14;;;;;;;14.63;6.15;;;20.90;99.90;;;;;;5070787;28;20047;-63
2023/08/01 03:28:18;;;;;;;11.05;6.43;;;21.00;99.90;;;;;;5070735;28;20047;-63
2023/08/01 03:31:24;;;;;;;13.73;6.75;;;21.00;99.90;;;;;;5058164;28;20047;-63
2023/08/01 03:34:28;;;;;;;17.70;8.18;;;21.00;99.90;;;;;;5070889;28;20055;-63
2023/08/01 03:37:32;;;;;;;17.77;8.20;;;21.00;99.90;;;;;;5070696;28;20510;-63
2023/08/01 03:40:37;;;;;;;15.13;7.10;;;21.00;99.90;;;;;;5071055;28;20052;-63
2023/08/01 03:43:40;;;;;;;18.23;7.80;;;21.00;99.90;;;;;;5069813;28;20047;-63
2023/08/01 03:46:44;;;;;;;17.35;7.47;;;21.10;99.90;;;;;;5058026;28;20047;-63
2023/08/01 03:49:49;;;;;;;15.10;8.32;;;21.10;99.90;;;;;;5070619;28;20067;-63
2023/08/01 03:52:53;;;;;;;16.15;8.07;;;21.10;99.90;;;;;;5070076;28;20043;-64
2023/08/01 03:55:57;;;;;;;14.07;8.50;;;21.10;99.90;;;;;;5058169;28;20043;-63
2023/08/01 03:59:04;;;;;;;14.77;8.20;;;21.10;99.90;;;;;;5071083;28;20403;-63
2023/08/01 04:02:08;;;;;;;15.25;8.50;;;21.10;99.90;;;;;;5069744;28;20044;-63
2023/08/01 04:05:12;;;;;;;9.82;6.10;;;21.00;99.90;;;;;;5070371;28;20494;-63
2023/08/01 04:08:17;;;;;;;10.38;5.47;;;20.90;99.90;;;;;;5057781;28;20043;-63
2023/08/01 04:11:21;;;;;;;17.73;6.25;;;20.80;99.90;;;;;;5070210;28;20052;-63
2023/08/01 04:14:25;;;;;;;13.25;5.15;;;20.70;99.90;;;;;;5070414;28;20040;-63
2023/08/01 04:17:29;;;;;;;12.25;4.90;;;20.60;99.90;;;;;;5070313;28;20395;-63
2023/08/01 04:20:33;;;;;;;9.63;5.00;;;20.50;99.90;;;;;;5059835;28;20044;-63
2023/08/01 04:23:37;;;;;;;15.90;4.72;;;20.30;99.90;;;;;;5074144;28;20043;-63
2023/08/01 04:26:41;;;;;;;12.73;4.30;;;20.30;99.90;;;;;;5074138;28;20048;-63
2023/08/01 04:29:46;;;;;;;9.63;4.85;;;20.30;99.90;;;;;;5074081;28;20044;-62
2023/08/01 04:32:50;;;;;;;8.85;3.92;;;20.30;99.90;;;;;;5073388;28;20051;-63
2023/08/01 04:35:55;;;;;;;10.80;4.53;;;20.30;99.90;;;;;;5073949;28;20043;-63
2023/08/01 04:38:59;;;;;;;9.25;4.45;;;20.30;99.90;;;;;;5073525;28;20072;-63
2023/08/01 04:42:03;;;;;;;12.13;4.60;;;20.30;99.90;;;;;;5073387;28;20048;-63
2023/08/01 04:45:08;;;;;;;9.90;4.10;;;20.30;99.90;;;;;;5073858;28;20059;-63
2023/08/01 04:48:12;;;;;;;11.88;4.57;;;20.50;99.90;;;;;;5073481;28;20055;-63
2023/08/01 04:51:16;;;;;;;11.48;4.90;;;20.50;99.90;;;;;;5073285;28;20048;-63
2023/08/01 04:54:20;;;;;;;8.95;5.53;;;20.50;99.90;;;;;;5061416;28;20063;-63
2023/08/01 04:57:24;;;;;;;19.23;5.15;;;20.60;99.90;;;;;;5073602;28;20047;-63
2023/08/01 05:00:28;;;;;;;12.77;5.05;;;21.50;99.90;;;;;;5073703;28;20051;-64
2023/08/01 05:03:33;;;;;;;11.02;5.13;;;23.80;99.90;;;;;;5073365;28;20059;-64
2023/08/01 05:06:37;;;;;;;12.20;4.43;;;25.80;99.90;;;;;;5073541;28;20063;-63
2023/08/01 05:09:41;;;;;;;20.73;4.60;;;27.20;99.90;;;;;;5073055;28;20391;-64
2023/08/01 05:12:45;;;;;;;11.93;4.68;;;28.10;99.90;;;;;;5073086;28;20395;-63
2023/08/01 05:15:49;;;;;;;12.25;3.83;;;29.10;99.90;;;;;;5073670;28;20048;-63
2023/08/01 05:18:54;;;;;;;17.08;4.45;;;29.80;99.90;;;;;;5073012;28;20055;-64
2023/08/01 05:21:58;;;;;;;10.95;3.97;;;30.60;99.90;;;;;;5072657;28;20502;-63
2023/08/01 05:25:03;;;;;;;8.52;4.15;;;31.30;99.90;;;;;;5073108;28;20052;-64
2023/08/01 05:28:08;;;;;;;9.30;3.38;;;31.90;99.30;;;;;;5072806;28;20051;-63
2023/08/01 05:31:13;;;;;;;5.65;3.45;;;32.50;98.70;;;;;;5072157;28;20052;-63
2023/08/01 05:34:18;;;;;;;10.43;4.20;;;32.70;98.20;;;;;;5060706;28;20059;-65
2023/08/01 05:37:22;;;;;;;9.38;3.60;;;32.80;97.80;;;;;;5073270;28;20051;-64
2023/08/01 05:40:26;;;;;;;10.15;4.38;;;33.10;97.20;;;;;;5073227;28;20044;-64
2023/08/01 05:43:31;;;;;;;11.88;4.38;;;33.50;97.40;;;;;;5071861;28;20855;-64
2023/08/01 05:46:35;;;;;;;7.88;3.83;;;34.10;97.40;;;;;;5073244;28;20041;-64
2023/08/01 05:49:41;;;;;;;13.80;4.93;;;34.80;96.90;;;;;;5072766;28;20059;-64
2023/08/01 05:52:45;;;;;;;12.27;4.40;;;35.00;96.80;;;;;;5058159;28;20055;-64
2023/08/01 05:55:50;;;;;;;9.95;4.32;;;35.20;96.50;;;;;;5065765;28;20039;-64
2023/08/01 05:58:55;;;;;;;9.93;4.15;;;35.60;96.10;;;;;;5062305;28;20403;-64
2023/08/01 06:01:59;;;;;;;10.57;3.90;;;34.20;96.10;;;;;;5064237;28;20044;-64
2023/08/01 06:05:04;;;;;;;11.25;4.43;;;33.50;97.00;;;;;;5052041;28;20124;-65
2023/08/01 06:08:08;;;;;;;13.73;4.05;;;33.30;97.80;;;;;;5056190;28;20063;-64
2023/08/01 06:11:14;;;;;;;6.55;4.22;;;33.20;97.90;;;;;;5059671;28;20043;-64
2023/08/01 06:14:19;;;;;;;9.98;4.00;;;33.10;97.40;;;;;;5059849;28;20182;-64
2023/08/01 06:17:24;;;;;;;12.23;3.83;;;32.30;98.00;;;;;;5067488;28;20517;-64
2023/08/01 06:20:29;;;;;;;8.95;3.60;;;32.10;97.50;;;;;;5061635;28;20040;-64
2023/08/01 06:23:33;;;;;;;9.73;4.05;;;31.40;98.60;;;;;;5051633;28;20060;-65
2023/08/01 06:26:37;;;;;;;12.10;4.18;;;32.00;98.00;;;;;;5051841;28;20052;-64
2023/08/01 06:29:41;;;;;;;10.65;5.05;;;32.30;97.80;;;;;;5051527;28;20040;-64
2023/08/01 06:32:46;;;;;;;9.07;4.03;;;31.00;98.10;;;;;;5067315;28;20039;-64
2023/08/01 06:35:51;;;;;;;7.05;4.10;;;30.40;99.90;;;;;;5055606;28;20052;-64
2023/08/01 06:38:55;;;;;;;7.00;4.07;;;31.60;99.20;;;;;;5057709;28;20075;-64
2023/08/01 06:42:00;;;;;;;8.20;3.83;;;32.70;98.30;;;;;;5057442;28;20044;-64
2023/08/01 06:45:05;;;;;;;7.75;3.65;;;33.60;97.20;;;;;;5063401;28;20047;-64
2023/08/01 06:48:10;;;;;;;8.05;3.90;;;34.00;96.50;;;;;;5058862;28;20051;-65
2023/08/01 06:51:15;;;;;;;9.10;3.47;;;34.40;95.70;;;;;;5060989;28;20040;-64
2023/08/01 06:54:20;;;;;;;7.63;3.63;;;34.30;95.60;;;;;;5064168;28;20043;-64
2023/08/01 06:57:25;;;;;;;12.18;3.78;;;34.60;95.00;;;;;;5059306;28;20036;-64
2023/08/01 07:00:30;;;;;;;9.80;3.70;;;34.70;95.00;;;;;;5060748;28;20043;-64
2023/08/01 07:03:34;;;;;;;12.65;3.83;;;33.40;95.70;;;;;;5067433;28;20035;-63
2023/08/01 07:06:40;;;;;;;10.45;3.50;;;31.80;96.80;;;;;;5066062;28;20044;-64
2023/08/01 07:09:43;;;;;;;12.05;3.97;;;32.80;97.10;;;;;;5064797;28;20055;-64
2023/08/01 07:12:48;;;;;;;8.07;3.40;;;32.40;96.80;;;;;;5065849;28;20051;-64
2023/08/01 07:15:51;;;;;;;9.23;3.72;;;32.50;96.50;;;;;;5067430;28;20040;-65
2023/08/01 07:19:00;;;;;;;7.45;3.40;;;32.90;95.60;;;;;;5065237;28;20054;-65
2023/08/01 07:22:04;;;;;;;10.88;3.75;;;34.10;95.30;;;;;;5062397;28;20040;-65
2023/08/01 07:25:11;;;;;;;6.47;3.33;;;34.40;95.10;;;;;;5066215;28;20403;-65
2023/08/01 07:28:15;;;;;;;8.38;3.83;;;32.80;95.70;;;;;;5065593;28;20048;-64
2023/08/01 07:31:19;;;;;;;11.57;3.10;;;33.40;95.60;;;;;;5058794;28;20035;-65
2023/08/01 07:34:24;;;;;;;7.38;2.88;;;34.40;95.40;;;;;;5064771;28;20043;-65
2023/08/01 07:37:29;;;;;;;8.02;3.65;;;33.50;94.40;;;;;;5050665;28;20036;-65
2023/08/01 07:40:36;;;;;;;13.77;3.92;;;32.30;95.50;;;;;;5052412;28;20036;-64
2023/08/01 07:43:40;;;;;;;13.82;3.65;;;32.50;95.90;;;;;;5068237;28;20039;-65
2023/08/01 07:46:46;;;;;;;10.05;3.75;;;33.20;96.10;;;;;;5061310;28;20087;-65
2023/08/01 07:49:50;;;;;;;10.95;3.80;;;31.90;97.20;;;;;;5065174;28;20047;-65
2023/08/01 07:52:54;;;;;;;6.53;3.40;;;32.50;96.80;;;;;;5064495;28;20119;-65
2023/08/01 07:55:58;;;;;;;9.43;3.45;;;32.50;96.10;;;;;;5070677;28;20051;-64
2023/08/01 07:59:03;;;;;;;7.68;3.20;;;32.90;95.40;;;;;;5075080;28;20052;-64
2023/08/01 08:02:07;;;;;;;6.68;3.15;;;33.80;95.00;;;;;;5072336;28;20059;-65
2023/08/01 08:05:11;;;;;;;8.98;4.47;;;34.50;94.50;;;;;;5070271;28;20043;-65
2023/08/01 08:08:16;;;;;;;7.50;3.55;;;32.30;95.70;;;;;;5071993;28;20043;-65
2023/08/01 08:11:20;;;;;;;8.15;3.83;;;31.10;96.00;;;;;;5066682;28;20055;-64
2023/08/01 08:14:24;;;;;;;7.63;3.33;;;32.30;96.10;;;;;;5070486;28;20043;-65
2023/08/01 08:17:28;;;;;;;9.73;3.60;;;32.30;96.30;;;;;;5069227;28;20128;-65
2023/08/01 08:20:40;;;;;;;11.13;3.22;;;32.50;95.70;;;;;;5054210;28;20051;-65
2023/08/01 08:23:44;;;;;;;12.35;3.53;;;32.40;96.00;;;;;;5067944;28;20043;-64
2023/08/01 08:26:48;;;;;;;8.45;3.50;;;30.20;97.40;;;;;;5071350;28;20036;-64
2023/08/01 08:29:53;;;;;;;14.50;4.13;;;28.60;98.90;;;;;;5071200;28;20051;-65
2023/08/01 08:33:03;;;;;;;9.35;4.13;;;29.00;99.10;;;;;;5066582;28;20048;-65
2023/08/01 08:36:07;;;;;;;9.77;4.07;;;29.70;99.60;;;;;;5069860;28;20045;-64
2023/08/01 08:39:12;;;;;;;11.20;3.80;;;30.00;99.00;;;;;;5067293;28;20056;-65
2023/08/01 08:42:19;;;;;;;9.18;3.53;;;31.60;97.50;;;;;;5069509;28;20040;-66
2023/08/01 08:45:24;;;;;;;8.93;3.67;;;32.20;96.40;;;;;;5072047;28;20047;-66
2023/08/01 08:48:29;;;;;;;11.77;4.25;;;31.40;95.70;;;;;;5068495;28;20043;-65
2023/08/01 08:51:37;;;;;;;7.72;3.67;;;31.30;96.70;;;;;;5069281;28;20059;-66
2023/08/01 08:54:42;;;;;;;9.35;3.30;;;30.90;95.80;;;;;;5071074;28;20048;-65
2023/08/01 08:57:50;;;;;;;7.22;3.28;;;30.40;96.70;;;;;;5064451;28;20430;-64
2023/08/01 09:00:55;;;;;;;7.90;3.70;;;29.00;98.00;;;;;;5060797;28;20051;-64
2023/08/01 09:04:03;;;;;;;7.38;3.25;;;29.00;98.30;;;;;;5065971;28;20028;-65
2023/08/01 09:07:11;;;;;;;10.38;3.53;;;29.40;98.20;;;;;;5059357;28;20044;-65
2023/08/01 09:10:15;;;;;;;15.63;3.97;;;30.20;98.20;;;;;;5064209;28;20052;-66
2023/08/01 09:13:19;;;;;;;8.60;3.50;;;29.80;97.10;;;;;;5056762;28;20056;-65
2023/08/01 09:16:23;;;;;;;5.50;3.20;;;30.20;97.80;;;;;;5060039;28;20040;-65
2023/08/01 09:19:28;;;;;;;7.93;3.65;;;32.60;95.90;;;;;;5062283;28;20048;-65
2023/08/01 09:22:46;;;;;;;6.82;3.10;;;34.30;94.00;;;;;;5062008;28;20051;-65
2023/08/01 09:25:51;;;;;;;9.32;3.28;;;36.30;92.80;;;;;;5061212;28;20048;-65
2023/08/01 09:28:56;;;;;;;14.30;3.35;;;37.20;91.60;;;;;;5066252;28;20090;-65
2023/08/01 09:32:12;;;;;;;8.43;2.97;;;38.80;90.30;;;;;;5059889;28;20035;-65
2023/08/01 09:35:16;;;;;;;7.10;2.90;;;40.00;87.70;;;;;;5067192;28;20056;-66
2023/08/01 09:38:20;;;;;;;7.10;3.25;;;38.00;88.70;;;;;;5066264;28;20047;-65
2023/08/01 09:41:24;;;;;;;11.13;3.38;;;36.10;91.00;;;;;;5075012;28;20043;-66
2023/08/01 09:44:29;;;;;;;13.27;3.28;;;35.00;92.00;;;;;;5065934;28;20040;-66
2023/08/01 09:47:37;;;;;;;8.68;3.85;;;35.10;91.90;;;;;;5060572;28;20359;-65
2023/08/01 09:50:41;;;;;;;6.80;2.85;;;34.90;92.10;;;;;;5063804;28;20399;-64
2023/08/01 09:53:54;;;;;;;11.15;3.55;;;34.60;92.10;;;;;;5060891;28;20052;-65
2023/08/01 09:56:59;;;;;;;7.10;3.40;;;34.30;92.60;;;;;;5064928;28;20035;-65
2023/08/01 10:00:03;;;;;;;7.95;3.40;;;34.20;92.30;;;;;;5068632;28;20044;-64
2023/08/01 10:03:17;;;;;;;10.70;3.75;;;34.30;92.30;;;;;;5064280;28;20048;-64
2023/08/01 10:06:23;;;;;;;6.95;3.30;;;34.10;92.40;;;;;;5064958;28;20075;-65
2023/08/01 10:09:31;;;;;;;7.38;3.10;;;33.40;92.60;;;;;;5065373;28;20103;-65
2023/08/01 10:12:37;;;;;;;8.75;2.97;;;34.80;91.80;;;;;;5063254;28;20040;-64
2023/08/01 10:15:44;;;;;;;6.78;3.10;;;37.80;90.50;;;;;;5060424;28;20071;-66
2023/08/01 10:18:48;;;;;;;9.07;3.40;;;40.80;87.50;;;;;;5065989;28;20107;-64
2023/08/01 10:21:54;;;;;;;5.25;2.97;;;36.40;89.60;;;;;;5068917;28;20043;-65
2023/08/01 10:24:58;;;;;;;7.93;3.45;;;37.30;89.40;;;;;;5061328;28;20048;-65
2023/08/01 10:28:05;;;;;;;5.78;2.95;;;36.40;90.10;;;;;;5057256;28;20067;-66
2023/08/01 10:31:14;;;;;;;7.82;3.15;;;37.10;90.20;;;;;;5065415;28;20060;-66
2023/08/01 10:34:21;;;;;;;6.35;3.10;;;39.20;83.70;;;;;;5061993;28;20032;-64
2023/08/01 10:37:26;;;;;;;12.68;3.75;;;39.20;83.60;;;;;;5060309;28;20043;-65
2023/08/01 10:40:41;;;;;;;6.13;3.45;;;37.10;84.70;;;;;;5063164;28;20051;-65
2023/08/01 10:43:45;;;;;;;10.43;3.42;;;36.80;85.70;;;;;;5066941;28;20047;-66
2023/08/01 10:47:00;;;;;;;6.45;3.25;;;39.20;84.90;;;;;;5055192;28;20052;-66
2023/08/01 10:50:14;;;;;;;7.57;3.35;;;40.90;81.70;;;;;;5061812;28;20048;-67
2023/08/01 10:53:18;;;;;;;9.10;3.17;;;38.00;79.50;;;;;;5066441;28;20039;-65
2023/08/01 10:56:23;;;;;;;7.10;3.75;;;36.40;80.60;;;;;;5062095;28;20039;-64
2023/08/01 10:59:29;;;;;;;9.27;3.38;;;34.90;82.50;;;;;;5062283;28;20047;-64
2023/08/01 11:02:33;;;;;;;5.97;3.20;;;37.20;81.60;;;;;;5064868;28;20043;-67
2023/08/01 11:05:37;;;;;;;10.93;3.85;;;37.90;80.70;;;;;;5060441;28;20052;-66
2023/08/01 11:08:43;;;;;;;7.82;3.83;;;37.90;81.50;;;;;;5058558;28;20047;-65
2023/08/01 11:11:50;;;;;;;6.10;3.42;;;34.70;81.70;;;;;;5060878;28;20518;-64
2023/08/01 11:15:02;;;;;;;6.47;3.30;;;33.50;84.70;;;;;;5067510;28;20063;-64
2023/08/01 11:18:09;;;;;;;7.13;3.78;;;34.00;83.30;;;;;;5061132;28;20048;-64
2023/08/01 11:21:26;;;;;;;10.88;3.80;;;32.60;86.00;;;;;;5056657;28;20051;-63
2023/08/01 11:24:30;;;;;;;29.80;4.78;;;32.90;85.10;;;;;;5058010;28;20039;-64
2023/08/01 11:27:35;;;;;;;5.13;3.08;;;35.20;83.40;;;;;;5056471;28;20032;-64
2023/08/01 11:30:40;;;;;;;12.13;4.47;;;35.90;81.10;;;;;;5054694;28;20067;-66
2023/08/01 11:33:55;;;;;;;7.38;4.05;;;33.70;84.10;;;;;;5060468;28;20314;-64
2023/08/01 11:36:59;;;;;;;9.77;3.30;;;32.50;84.00;;;;;;5063366;28;20395;-64
2023/08/01 11:40:06;;;;;;;5.93;3.70;;;33.90;85.70;;;;;;5063100;28;20043;-64
2023/08/01 11:43:10;;;;;;;7.35;3.47;;;35.10;83.90;;;;;;5056120;28;20047;-65
2023/08/01 11:46:16;;;;;;;10.50;4.03;;;35.40;83.50;;;;;;5064518;28;20044;-63
2023/08/01 11:49:20;;;;;;;9.77;4.18;;;33.40;86.10;;;;;;5068012;28;20048;-64
2023/08/01 11:52:28;;;;;;;6.38;4.15;;;32.90;86.40;;;;;;5049093;28;20044;-65
2023/08/01 11:55:36;;;;;;;6.55;3.92;;;32.90;86.90;;;;;;5058725;28;20044;-64
2023/08/01 11:58:43;;;;;;;7.53;3.80;;;33.30;85.90;;;;;;5065329;28;20106;-65
2023/08/01 12:01:48;;;;;;;10.38;4.28;;;33.40;86.30;;;;;;5054419;28;20068;-65
2023/08/01 12:04:53;;;;;;;10.48;4.57;;;33.30;87.70;;;;;;5059293;28;20068;-65
2023/08/01 12:08:14;;;;;;;11.38;4.15;;;34.40;86.50;;;;;;5062907;28;20056;-64
2023/08/01 12:11:20;;;;;;;10.23;4.63;;;32.40;88.00;;;;;;5066274;28;20082;-64
2023/08/01 12:14:24;;;;;;;7.13;3.80;;;32.30;90.00;;;;;;5066734;28;20047;-64
2023/08/01 12:17:30;;;;;;;7.70;4.10;;;34.40;87.60;;;;;;5057639;28;20036;-64
2023/08/01 12:20:36;;;;;;;7.07;4.00;;;33.70;87.10;;;;;;5063078;28;20059;-64
2023/08/01 12:23:41;;;;;;;8.93;4.22;;;34.40;87.50;;;;;;5061010;28;20102;-64
2023/08/01 12:26:45;;;;;;;7.88;3.75;;;34.00;86.30;;;;;;5066638;28;20482;-64
2023/08/01 12:29:49;;;;;;;6.28;3.90;;;35.50;87.00;;;;;;5063150;28;20059;-64
2023/08/01 12:32:54;;;;;;;9.02;4.20;;;35.40;84.90;;;;;;5059758;28;20494;-64
2023/08/01 12:36:00;;;;;;;7.45;4.18;;;34.60;86.30;;;;;;5052907;28;20048;-65
2023/08/01 12:39:10;;;;;;;6.65;4.32;;;35.30;86.20;;;;;;5050788;28;20407;-64
2023/08/01 12:42:14;;;;;;;7.18;4.38;;;32.90;86.20;;;;;;5051824;28;20044;-64
2023/08/01 12:45:18;;;;;;;5.90;3.67;;;32.30;88.20;;;;;;5059104;28;20052;-64
2023/08/01 12:48:22;;;;;;;9.15;3.92;;;32.90;88.60;;;;;;5053081;28;20313;-64
2023/08/01 12:51:26;;;;;;;7.25;4.20;;;33.70;87.70;;;;;;5066429;28;20044;-64
2023/08/01 12:54:30;;;;;;;6.72;4.13;;;34.20;87.60;;;;;;5053943;28;20044;-64
2023/08/01 12:57:34;;;;;;;9.52;4.30;;;33.20;88.10;;;;;;5058397;28;20051;-64
2023/08/01 13:00:40;;;;;;;8.63;4.30;;;34.00;88.00;;;;;;5055659;28;20056;-64
2023/08/01 13:03:45;;;;;;;7.43;4.28;;;34.60;87.30;;;;;;5056782;28;20119;-65
2023/08/01 13:06:49;;;;;;;7.38;4.43;;;34.20;87.90;;;;;;5052972;28;20044;-64
2023/08/01 13:09:53;;;;;;;7.55;4.10;;;35.40;84.30;;;;;;5056712;28;20028;-64
2023/08/01 13:13:00;;;;;;;17.58;4.70;;;33.80;85.50;;;;;;5070441;28;20052;-64
2023/08/01 13:16:05;;;;;;;10.65;4.25;;;33.30;87.70;;;;;;5059724;28;20103;-65
2023/08/01 13:19:10;;;;;;;8.25;4.70;;;34.60;85.60;;;;;;5072675;28;20067;-64
2023/08/01 13:22:14;;;;;;;7.25;4.78;;;33.70;86.30;;;;;;5057003;28;20036;-65
2023/08/01 13:25:19;;;;;;;12.85;5.25;;;32.20;88.00;;;;;;5067559;28;20051;-64
2023/08/01 13:28:24;;;;;;;12.32;4.65;;;32.30;90.70;;;;;;5072260;28;20490;-64
2023/08/01 13:31:29;;;;;;;9.35;4.00;;;34.20;87.40;;;;;;5059096;28;20052;-64
2023/08/01 13:34:33;;;;;;;12.13;4.18;;;34.70;85.60;;;;;;5052003;28;20043;-64
2023/08/01 13:37:36;;;;;;;6.82;4.10;;;35.20;86.00;;;;;;5054811;28;20131;-64
2023/08/01 13:40:40;;;;;;;14.13;4.20;;;36.40;86.10;;;;;;5056621;28;20483;-64
2023/08/01 19:22:33;;;;;;;13.20;4.95;;;24.50;94.60;;;;;;5051668;28;20056;-64
2023/08/01 19:25:39;;;;;;;14.25;4.90;;;24.50;94.50;;;;;;5050116;28;20048;-64
2023/08/01 19:28:44;;;;;;;14.48;5.72;;;24.40;94.50;;;;;;5049924;28;20047;-64
2023/08/01 19:31:48;;;;;;;17.30;6.38;;;24.40;94.50;;;;;;5049609;28;20052;-64
2023/08/01 19:34:52;;;;;;;22.92;6.75;;;24.40;94.90;;;;;;5049812;28;20510;-64
2023/08/01 19:37:57;;;;;;;12.50;5.45;;;24.40;94.50;;;;;;5049130;28;20052;-64
2023/08/01 19:41:03;;;;;;;12.85;5.80;;;24.30;94.60;;;;;;5050154;28;20056;-64
2023/08/01 19:44:08;;;;;;;21.55;5.38;;;24.30;95.00;;;;;;5049470;28;20044;-64
2023/08/01 19:47:12;;;;;;;16.13;4.78;;;24.20;95.10;;;;;;5049905;28;20044;-64
2023/08/01 19:50:19;;;;;;;13.52;5.30;;;24.20;95.20;;;;;;5049326;28;20044;-63
2023/08/01 19:53:23;;;;;;;14.88;4.88;;;24.10;95.00;;;;;;5049843;28;20048;-64
2023/08/01 19:56:28;;;;;;;14.98;5.00;;;24.10;95.20;;;;;;5049764;28;20048;-64
2023/08/01 19:59:33;;;;;;;14.20;5.03;;;24.00;95.40;;;;;;5049889;28;20052;-64
2023/08/01 20:02:39;;;;;;;15.15;5.30;;;24.00;95.70;;;;;;5049475;28;20051;-64
2023/08/01 20:05:43;;;;;;;18.88;4.78;;;24.00;96.30;;;;;;5050496;28;20048;-64
2023/08/01 20:08:47;;;;;;;15.18;5.50;;;23.90;97.00;;;;;;5050019;28;20048;-64
2023/08/01 20:11:51;;;;;;;12.88;4.80;;;23.80;97.20;;;;;;5049902;28;20048;-64
2023/08/01 20:14:56;;;;;;;15.85;5.40;;;23.80;97.40;;;;;;5050103;28;20048;-64
2023/08/01 20:18:00;;;;;;;10.05;4.25;;;23.70;97.60;;;;;;5049911;28;20057;-63
2023/08/01 20:21:05;;;;;;;15.25;5.05;;;23.70;97.90;;;;;;5049862;28;20044;-65
2023/08/01 20:24:09;;;;;;;34.30;6.10;;;23.60;98.20;;;;;;5049735;28;20047;-63
2023/08/01 20:27:14;;;;;;;12.80;4.93;;;23.60;98.50;;;;;;5049855;28;20040;-63
2023/08/01 20:30:18;;;;;;;17.35;5.88;;;23.60;98.80;;;;;;5049517;28;20048;-64
2023/08/01 20:33:25;;;;;;;18.92;5.80;;;23.50;99.30;;;;;;5049219;28;20056;-64
2023/08/01 20:36:29;;;;;;;13.00;5.82;;;23.50;99.60;;;;;;5049938;28;20523;-65
2023/08/01 20:39:33;;;;;;;15.35;5.15;;;23.50;99.90;;;;;;5037193;28;20102;-64
2023/08/01 20:42:37;;;;;;;16.88;6.10;;;23.50;99.90;;;;;;5049808;28;20040;-64
2023/08/01 20:45:40;;;;;;;16.27;5.20;;;23.50;99.90;;;;;;5049010;28;20036;-64
2023/08/01 20:48:44;;;;;;;19.40;5.28;;;23.50;99.90;;;;;;5049177;28;20044;-64
2023/08/01 20:51:49;;;;;;;18.55;5.57;;;23.40;99.90;;;;;;5049020;28;20044;-64
2023/08/01 20:54:53;;;;;;;21.73;5.75;;;23.40;99.90;;;;;;5049449;28;20491;-64
2023/08/01 20:57:57;;;;;;;22.25;5.50;;;23.30;99.90;;;;;;5049394;28;20396;-63
2023/08/01 21:01:03;;;;;;;15.98;5.20;;;23.30;99.90;;;;;;5056445;28;20048;-64
2023/08/01 21:04:07;;;;;;;14.82;5.18;;;23.30;99.90;;;;;;5073101;28;20055;-64
2023/08/01 21:07:11;;;;;;;14.48;5.00;;;23.20;99.90;;;;;;5053540;28;20060;-63
2023/08/01 21:10:16;;;;;;;13.45;4.95;;;23.20;99.90;;;;;;5056403;28;21385;-64
2023/08/01 21:13:20;;;;;;;13.75;5.20;;;23.10;99.90;;;;;;5072290;28;20309;-63
2023/08/01 21:16:24;;;;;;;16.20;5.20;;;23.00;99.90;;;;;;5072943;28;20051;-63
2023/08/01 21:19:28;;;;;;;16.25;5.03;;;22.90;99.90;;;;;;5047431;28;20044;-63
2023/08/01 21:22:32;;;;;;;10.48;4.45;;;22.80;99.90;;;;;;5072118;28;20043;-64
2023/08/01 21:25:37;;;;;;;17.52;5.03;;;22.80;99.90;;;;;;5060510;28;20127;-63
2023/08/01 21:28:40;;;;;;;14.75;5.70;;;22.80;99.90;;;;;;5072513;28;20039;-63
2023/08/01 21:31:44;;;;;;;15.32;4.82;;;22.90;99.90;;;;;;5071541;28;20045;-64
2023/08/01 21:34:48;;;;;;;18.30;5.80;;;22.90;99.90;;;;;;5067861;28;20407;-64